KMWH/MWH METAR and TAF weather

Enter ICAO airport designator
Station Type Date Time Source
KMWH METAR 2020/03/28 14:52 UTC NOAA

KMWH 281452Z 18003KT 10SM CLR 04/00 A2998 RMK AO2 SLP207 T00390000 53003


Station Type Date Time Source
KMWH Decoded METAR 2020/03/28 14:52 UTC NOAA

GRANT COUNTY AIRPORT, WA, United States (KMWH) 47-12N 119-19W 362M
Mar 28, 2020 - 10:52 AM EDT / 2020.03.28 1452 UTC
Wind: from the S (180 degrees) at 3 MPH (3 KT):0
Visibility: 10 mile(s):0
Sky conditions: clear
Temperature: 39.0 F (3.9 C)
Dew Point: 32.0 F (0.0 C)
Relative Humidity: 75%
Pressure (altimeter): 29.98 in. Hg (1015 hPa)
Pressure tendency: 0.01 inches (0.3 hPa) higher than three hours ago
ob: KMWH 281452Z 18003KT 10SM CLR 04/00 A2998 RMK AO2 SLP207 T00390000 53003
cycle: 15

Station Type Date Time Source
KMWH TAF 2020/03/28 12:42 UTC NOAA

TAF KMWH 281139Z 2812/2912 17006KT P6SM SCT100
FM281800 20011KT P6SM FEW050
FM282100 21013G21KT P6SM SCT070
FM290200 20008KT P6SM SCT070

Example: see airport list